Terminal Aerodrome Forecast
Issued by NWS Melbourne, FL

Home | Current Version | Previous Version | Text Only | Print | Product List | Glossary On
Versions: 1 2 3 4 5 6 7 8 9 10 11 12 13 14 15 16 17 18 19 20
000
FTUS42 KMLB 190700 AAA
TAFVRB
TAF AMD
KVRB 190757Z 1908/2006 19007KT P6SM VCSH SCT020 BKN090
      TEMPO 1909/1911 4SM TSRA BR SCT020CB BKN025
     FM191400 23011KT P6SM VCSH SCT010 OVC035
     FM192300 26010KT P6SM SCT012 BKN035=

USA.gov is the U.S. government's official web portal to all federal, state and local government web resources and services.